sensor_id;sensor_type;location;lat;lon;timestamp;P1;durP1;ratioP1;P2;durP2;ratioP2
80778;SDS011;70170;47.856;10.956;2024-01-30T00:00:36;3.38;;;2.22;;
80778;SDS011;70170;47.856;10.956;2024-01-30T00:03:01;2.20;;;2.00;;
80778;SDS011;70170;47.856;10.956;2024-01-30T00:05:26;4.82;;;2.30;;
80778;SDS011;70170;47.856;10.956;2024-01-30T00:07:52;3.80;;;2.20;;
80778;SDS011;70170;47.856;10.956;2024-01-30T00:10:17;5.03;;;2.60;;
80778;SDS011;70170;47.856;10.956;2024-01-30T00:12:43;6.38;;;2.42;;
80778;SDS011;70170;47.856;10.956;2024-01-30T00:15:08;7.15;;;3.20;;
80778;SDS011;70170;47.856;10.956;2024-01-30T00:17:35;4.05;;;2.72;;
80778;SDS011;70170;47.856;10.956;2024-01-30T00:20:01;5.95;;;3.20;;
80778;SDS011;70170;47.856;10.956;2024-01-30T00:22:30;4.00;;;2.33;;
80778;SDS011;70170;47.856;10.956;2024-01-30T00:24:55;4.22;;;3.03;;
80778;SDS011;70170;47.856;10.956;2024-01-30T00:27:21;8.32;;;2.55;;
80778;SDS011;70170;47.856;10.956;2024-01-30T00:29:46;5.60;;;2.95;;
80778;SDS011;70170;47.856;10.956;2024-01-30T00:32:11;2.10;;;1.88;;
80778;SDS011;70170;47.856;10.956;2024-01-30T00:34:36;2.97;;;2.00;;
80778;SDS011;70170;47.856;10.956;2024-01-30T00:37:02;4.10;;;2.38;;
80778;SDS011;70170;47.856;10.956;2024-01-30T00:39:27;5.57;;;2.58;;
80778;SDS011;70170;47.856;10.956;2024-01-30T00:41:53;2.45;;;1.95;;
80778;SDS011;70170;47.856;10.956;2024-01-30T00:44:18;5.13;;;2.42;;
80778;SDS011;70170;47.856;10.956;2024-01-30T00:46:43;7.88;;;3.10;;
80778;SDS011;70170;47.856;10.956;2024-01-30T00:49:08;8.23;;;2.95;;
80778;SDS011;70170;47.856;10.956;2024-01-30T00:51:34;4.03;;;2.75;;
80778;SDS011;70170;47.856;10.956;2024-01-30T00:53:59;4.68;;;2.55;;
80778;SDS011;70170;47.856;10.956;2024-01-30T00:56:24;4.35;;;2.95;;
80778;SDS011;70170;47.856;10.956;2024-01-30T00:58:50;5.57;;;3.05;;
80778;SDS011;70170;47.856;10.956;2024-01-30T01:01:15;8.40;;;2.88;;
80778;SDS011;70170;47.856;10.956;2024-01-30T01:03:40;6.65;;;3.13;;
80778;SDS011;70170;47.856;10.956;2024-01-30T01:06:08;5.15;;;2.97;;
80778;SDS011;70170;47.856;10.956;2024-01-30T01:08:33;6.22;;;3.65;;
80778;SDS011;70170;47.856;10.956;2024-01-30T01:10:59;5.40;;;3.20;;
80778;SDS011;70170;47.856;10.956;2024-01-30T01:13:24;6.68;;;3.70;;
80778;SDS011;70170;47.856;10.956;2024-01-30T01:15:49;4.50;;;3.35;;
80778;SDS011;70170;47.856;10.956;2024-01-30T01:18:15;5.28;;;3.28;;
80778;SDS011;70170;47.856;10.956;2024-01-30T01:20:40;4.68;;;3.33;;
80778;SDS011;70170;47.856;10.956;2024-01-30T01:23:06;8.43;;;3.08;;
80778;SDS011;70170;47.856;10.956;2024-01-30T01:25:31;4.05;;;2.90;;
80778;SDS011;70170;47.856;10.956;2024-01-30T01:27:56;11.50;;;3.78;;
80778;SDS011;70170;47.856;10.956;2024-01-30T01:30:22;5.68;;;3.20;;
80778;SDS011;70170;47.856;10.956;2024-01-30T01:32:50;9.27;;;3.58;;
80778;SDS011;70170;47.856;10.956;2024-01-30T01:35:20;6.68;;;3.33;;
80778;SDS011;70170;47.856;10.956;2024-01-30T01:37:47;6.55;;;3.60;;
80778;SDS011;70170;47.856;10.956;2024-01-30T01:40:19;4.22;;;2.75;;
80778;SDS011;70170;47.856;10.956;2024-01-30T01:42:45;4.40;;;3.03;;
80778;SDS011;70170;47.856;10.956;2024-01-30T01:45:10;3.53;;;2.47;;
80778;SDS011;70170;47.856;10.956;2024-01-30T01:47:35;3.30;;;2.50;;
80778;SDS011;70170;47.856;10.956;2024-01-30T01:50:01;2.13;;;1.92;;
80778;SDS011;70170;47.856;10.956;2024-01-30T01:52:26;3.55;;;2.22;;
80778;SDS011;70170;47.856;10.956;2024-01-30T01:54:51;7.95;;;3.13;;
80778;SDS011;70170;47.856;10.956;2024-01-30T01:57:17;4.57;;;3.05;;
80778;SDS011;70170;47.856;10.956;2024-01-30T01:59:43;4.38;;;2.80;;
80778;SDS011;70170;47.856;10.956;2024-01-30T02:02:08;6.13;;;3.25;;
80778;SDS011;70170;47.856;10.956;2024-01-30T02:04:36;5.30;;;2.63;;
80778;SDS011;70170;47.856;10.956;2024-01-30T02:07:01;6.70;;;3.35;;
80778;SDS011;70170;47.856;10.956;2024-01-30T02:09:26;3.88;;;2.17;;
80778;SDS011;70170;47.856;10.956;2024-01-30T02:11:52;2.35;;;2.08;;
80778;SDS011;70170;47.856;10.956;2024-01-30T02:14:17;5.25;;;2.45;;
80778;SDS011;70170;47.856;10.956;2024-01-30T02:16:42;3.42;;;2.33;;
80778;SDS011;70170;47.856;10.956;2024-01-30T02:19:08;4.43;;;2.60;;
80778;SDS011;70170;47.856;10.956;2024-01-30T02:21:33;3.30;;;2.20;;
80778;SDS011;70170;47.856;10.956;2024-01-30T02:23:58;4.50;;;2.08;;
80778;SDS011;70170;47.856;10.956;2024-01-30T02:26:24;5.05;;;2.88;;
80778;SDS011;70170;47.856;10.956;2024-01-30T02:28:50;4.78;;;3.17;;
80778;SDS011;70170;47.856;10.956;2024-01-30T02:31:15;10.73;;;3.45;;
80778;SDS011;70170;47.856;10.956;2024-01-30T02:33:40;13.45;;;3.53;;
80778;SDS011;70170;47.856;10.956;2024-01-30T02:36:06;4.07;;;2.13;;
80778;SDS011;70170;47.856;10.956;2024-01-30T02:38:31;3.67;;;2.25;;
80778;SDS011;70170;47.856;10.956;2024-01-30T02:40:56;3.75;;;1.92;;
80778;SDS011;70170;47.856;10.956;2024-01-30T02:43:22;2.42;;;1.88;;
80778;SDS011;70170;47.856;10.956;2024-01-30T02:45:47;3.67;;;2.10;;
80778;SDS011;70170;47.856;10.956;2024-01-30T02:48:12;4.38;;;2.58;;
80778;SDS011;70170;47.856;10.956;2024-01-30T02:50:38;1.85;;;1.50;;
80778;SDS011;70170;47.856;10.956;2024-01-30T02:53:03;3.45;;;2.47;;
80778;SDS011;70170;47.856;10.956;2024-01-30T02:55:28;6.25;;;2.15;;
80778;SDS011;70170;47.856;10.956;2024-01-30T02:57:54;3.25;;;2.08;;
80778;SDS011;70170;47.856;10.956;2024-01-30T03:00:19;4.75;;;2.70;;
80778;SDS011;70170;47.856;10.956;2024-01-30T03:02:45;3.00;;;1.98;;
80778;SDS011;70170;47.856;10.956;2024-01-30T03:05:10;2.85;;;2.33;;
80778;SDS011;70170;47.856;10.956;2024-01-30T03:07:36;6.43;;;2.75;;
80778;SDS011;70170;47.856;10.956;2024-01-30T03:10:01;4.25;;;2.58;;
80778;SDS011;70170;47.856;10.956;2024-01-30T03:12:27;5.50;;;2.40;;
80778;SDS011;70170;47.856;10.956;2024-01-30T03:14:52;3.13;;;2.20;;
80778;SDS011;70170;47.856;10.956;2024-01-30T03:17:18;3.83;;;2.22;;
80778;SDS011;70170;47.856;10.956;2024-01-30T03:19:43;3.13;;;1.88;;
80778;SDS011;70170;47.856;10.956;2024-01-30T03:22:08;2.58;;;2.03;;
80778;SDS011;70170;47.856;10.956;2024-01-30T03:24:34;2.10;;;1.60;;
80778;SDS011;70170;47.856;10.956;2024-01-30T03:26:59;1.83;;;1.70;;
80778;SDS011;70170;47.856;10.956;2024-01-30T03:29:24;2.38;;;1.60;;
80778;SDS011;70170;47.856;10.956;2024-01-30T03:31:49;4.22;;;1.92;;
80778;SDS011;70170;47.856;10.956;2024-01-30T03:34:15;3.10;;;2.10;;
80778;SDS011;70170;47.856;10.956;2024-01-30T03:36:40;2.08;;;1.80;;
80778;SDS011;70170;47.856;10.956;2024-01-30T03:39:05;4.55;;;2.17;;
80778;SDS011;70170;47.856;10.956;2024-01-30T03:41:31;5.32;;;2.28;;
80778;SDS011;70170;47.856;10.956;2024-01-30T03:43:56;4.18;;;2.10;;
80778;SDS011;70170;47.856;10.956;2024-01-30T03:46:23;2.33;;;1.75;;
80778;SDS011;70170;47.856;10.956;2024-01-30T03:48:48;4.78;;;1.90;;
80778;SDS011;70170;47.856;10.956;2024-01-30T03:51:14;5.93;;;2.70;;
80778;SDS011;70170;47.856;10.956;2024-01-30T03:53:41;6.28;;;2.45;;
80778;SDS011;70170;47.856;10.956;2024-01-30T03:56:07;4.00;;;2.13;;
80778;SDS011;70170;47.856;10.956;2024-01-30T03:58:32;5.18;;;2.22;;
80778;SDS011;70170;47.856;10.956;2024-01-30T04:00:58;3.67;;;2.05;;
80778;SDS011;70170;47.856;10.956;2024-01-30T04:03:23;2.83;;;2.00;;
80778;SDS011;70170;47.856;10.956;2024-01-30T04:05:48;4.32;;;2.22;;
80778;SDS011;70170;47.856;10.956;2024-01-30T04:08:13;9.15;;;2.92;;
80778;SDS011;70170;47.856;10.956;2024-01-30T04:10:39;4.50;;;2.25;;
80778;SDS011;70170;47.856;10.956;2024-01-30T04:13:05;5.10;;;1.92;;
80778;SDS011;70170;47.856;10.956;2024-01-30T04:15:30;3.35;;;2.20;;
80778;SDS011;70170;47.856;10.956;2024-01-30T04:17:59;5.18;;;2.40;;
80778;SDS011;70170;47.856;10.956;2024-01-30T04:20:24;3.22;;;2.10;;
80778;SDS011;70170;47.856;10.956;2024-01-30T04:22:50;4.47;;;2.13;;
80778;SDS011;70170;47.856;10.956;2024-01-30T04:25:15;3.80;;;1.63;;
80778;SDS011;70170;47.856;10.956;2024-01-30T04:27:41;4.75;;;1.83;;
80778;SDS011;70170;47.856;10.956;2024-01-30T04:30:06;2.92;;;2.13;;
80778;SDS011;70170;47.856;10.956;2024-01-30T04:32:32;3.92;;;2.08;;
80778;SDS011;70170;47.856;10.956;2024-01-30T04:34:58;2.15;;;1.50;;
80778;SDS011;70170;47.856;10.956;2024-01-30T04:37:23;2.50;;;1.73;;
80778;SDS011;70170;47.856;10.956;2024-01-30T04:39:49;3.45;;;2.20;;
80778;SDS011;70170;47.856;10.956;2024-01-30T04:42:15;1.80;;;1.50;;
80778;SDS011;70170;47.856;10.956;2024-01-30T04:44:41;2.53;;;1.52;;
80778;SDS011;70170;47.856;10.956;2024-01-30T04:47:06;2.55;;;1.90;;
80778;SDS011;70170;47.856;10.956;2024-01-30T04:49:34;3.60;;;1.77;;
80778;SDS011;70170;47.856;10.956;2024-01-30T04:51:59;2.22;;;1.25;;
80778;SDS011;70170;47.856;10.956;2024-01-30T04:54:25;2.53;;;1.67;;
80778;SDS011;70170;47.856;10.956;2024-01-30T04:56:50;1.92;;;1.50;;
80778;SDS011;70170;47.856;10.956;2024-01-30T04:59:16;4.50;;;1.60;;
80778;SDS011;70170;47.856;10.956;2024-01-30T05:01:41;2.90;;;1.80;;
80778;SDS011;70170;47.856;10.956;2024-01-30T05:04:09;1.70;;;1.60;;
80778;SDS011;70170;47.856;10.956;2024-01-30T05:06:35;2.95;;;1.42;;
80778;SDS011;70170;47.856;10.956;2024-01-30T05:09:00;5.63;;;2.05;;
80778;SDS011;70170;47.856;10.956;2024-01-30T05:11:25;1.88;;;1.40;;
80778;SDS011;70170;47.856;10.956;2024-01-30T05:13:51;2.05;;;1.85;;
80778;SDS011;70170;47.856;10.956;2024-01-30T05:16:16;1.92;;;1.52;;
80778;SDS011;70170;47.856;10.956;2024-01-30T05:18:41;1.95;;;1.48;;
80778;SDS011;70170;47.856;10.956;2024-01-30T05:21:06;2.25;;;1.63;;
80778;SDS011;70170;47.856;10.956;2024-01-30T05:23:32;2.33;;;1.63;;
80778;SDS011;70170;47.856;10.956;2024-01-30T05:25:57;2.78;;;1.83;;
80778;SDS011;70170;47.856;10.956;2024-01-30T05:28:25;2.70;;;1.65;;
80778;SDS011;70170;47.856;10.956;2024-01-30T05:30:51;3.28;;;1.60;;
80778;SDS011;70170;47.856;10.956;2024-01-30T05:33:16;1.75;;;1.27;;
80778;SDS011;70170;47.856;10.956;2024-01-30T05:35:41;4.82;;;1.60;;
80778;SDS011;70170;47.856;10.956;2024-01-30T05:38:07;1.45;;;1.35;;
80778;SDS011;70170;47.856;10.956;2024-01-30T05:40:32;1.88;;;1.55;;
80778;SDS011;70170;47.856;10.956;2024-01-30T05:42:57;2.78;;;2.03;;
80778;SDS011;70170;47.856;10.956;2024-01-30T05:45:27;4.72;;;2.47;;
80778;SDS011;70170;47.856;10.956;2024-01-30T05:47:53;11.05;;;4.93;;
80778;SDS011;70170;47.856;10.956;2024-01-30T05:50:19;8.20;;;4.10;;
80778;SDS011;70170;47.856;10.956;2024-01-30T05:52:44;6.30;;;3.47;;
80778;SDS011;70170;47.856;10.956;2024-01-30T05:55:11;15.88;;;4.65;;
80778;SDS011;70170;47.856;10.956;2024-01-30T05:57:37;11.02;;;4.22;;
80778;SDS011;70170;47.856;10.956;2024-01-30T06:00:03;7.10;;;3.35;;
80778;SDS011;70170;47.856;10.956;2024-01-30T06:02:30;7.30;;;3.33;;
80778;SDS011;70170;47.856;10.956;2024-01-30T06:04:55;4.88;;;2.30;;
80778;SDS011;70170;47.856;10.956;2024-01-30T06:07:21;5.63;;;2.88;;
80778;SDS011;70170;47.856;10.956;2024-01-30T06:09:47;9.65;;;3.28;;
80778;SDS011;70170;47.856;10.956;2024-01-30T06:12:12;4.13;;;2.20;;
80778;SDS011;70170;47.856;10.956;2024-01-30T06:14:37;11.32;;;3.05;;
80778;SDS011;70170;47.856;10.956;2024-01-30T06:17:03;3.72;;;1.45;;
80778;SDS011;70170;47.856;10.956;2024-01-30T06:19:28;2.60;;;1.73;;
80778;SDS011;70170;47.856;10.956;2024-01-30T06:21:53;1.83;;;1.60;;
80778;SDS011;70170;47.856;10.956;2024-01-30T06:24:19;1.40;;;0.95;;
80778;SDS011;70170;47.856;10.956;2024-01-30T06:26:44;3.33;;;1.92;;
80778;SDS011;70170;47.856;10.956;2024-01-30T06:29:09;2.33;;;1.73;;
80778;SDS011;70170;47.856;10.956;2024-01-30T06:31:41;2.30;;;1.55;;
80778;SDS011;70170;47.856;10.956;2024-01-30T06:34:07;6.95;;;1.88;;
80778;SDS011;70170;47.856;10.956;2024-01-30T06:36:32;55.33;;;5.10;;
80778;SDS011;70170;47.856;10.956;2024-01-30T06:38:58;3.83;;;2.47;;
80778;SDS011;70170;47.856;10.956;2024-01-30T06:41:23;3.47;;;1.90;;
80778;SDS011;70170;47.856;10.956;2024-01-30T06:43:49;6.20;;;2.60;;
80778;SDS011;70170;47.856;10.956;2024-01-30T06:46:14;2.70;;;2.10;;
80778;SDS011;70170;47.856;10.956;2024-01-30T06:48:40;4.70;;;2.67;;
80778;SDS011;70170;47.856;10.956;2024-01-30T06:51:05;5.15;;;2.20;;
80778;SDS011;70170;47.856;10.956;2024-01-30T06:53:31;4.72;;;1.98;;
80778;SDS011;70170;47.856;10.956;2024-01-30T06:55:56;4.80;;;1.25;;
80778;SDS011;70170;47.856;10.956;2024-01-30T06:58:21;1.30;;;1.20;;
80778;SDS011;70170;47.856;10.956;2024-01-30T07:00:46;1.75;;;1.25;;
80778;SDS011;70170;47.856;10.956;2024-01-30T07:03:12;2.80;;;1.35;;
80778;SDS011;70170;47.856;10.956;2024-01-30T07:05:37;2.08;;;1.80;;
80778;SDS011;70170;47.856;10.956;2024-01-30T07:08:02;2.72;;;1.70;;
80778;SDS011;70170;47.856;10.956;2024-01-30T07:10:28;2.75;;;2.10;;
80778;SDS011;70170;47.856;10.956;2024-01-30T07:12:53;3.85;;;2.42;;
80778;SDS011;70170;47.856;10.956;2024-01-30T07:15:19;4.38;;;2.28;;
80778;SDS011;70170;47.856;10.956;2024-01-30T07:17:45;8.60;;;3.13;;
80778;SDS011;70170;47.856;10.956;2024-01-30T07:20:11;4.20;;;1.90;;
80778;SDS011;70170;47.856;10.956;2024-01-30T07:22:36;7.13;;;2.10;;
80778;SDS011;70170;47.856;10.956;2024-01-30T07:25:02;5.47;;;2.70;;
80778;SDS011;70170;47.856;10.956;2024-01-30T07:27:27;3.13;;;2.20;;
80778;SDS011;70170;47.856;10.956;2024-01-30T07:29:52;5.43;;;2.58;;
80778;SDS011;70170;47.856;10.956;2024-01-30T07:32:18;5.10;;;2.60;;
80778;SDS011;70170;47.856;10.956;2024-01-30T07:34:43;5.88;;;2.90;;
80778;SDS011;70170;47.856;10.956;2024-01-30T07:37:09;3.03;;;2.42;;
80778;SDS011;70170;47.856;10.956;2024-01-30T07:39:35;12.65;;;5.00;;
80778;SDS011;70170;47.856;10.956;2024-01-30T07:42:01;9.85;;;5.43;;
80778;SDS011;70170;47.856;10.956;2024-01-30T07:44:26;10.40;;;5.47;;
80778;SDS011;70170;47.856;10.956;2024-01-30T07:46:51;9.82;;;4.70;;
80778;SDS011;70170;47.856;10.956;2024-01-30T07:49:16;3.83;;;2.88;;
80778;SDS011;70170;47.856;10.956;2024-01-30T07:51:42;4.75;;;2.20;;
80778;SDS011;70170;47.856;10.956;2024-01-30T07:54:08;3.25;;;2.40;;
80778;SDS011;70170;47.856;10.956;2024-01-30T07:56:33;3.30;;;2.47;;
80778;SDS011;70170;47.856;10.956;2024-01-30T07:58:58;6.40;;;2.92;;
80778;SDS011;70170;47.856;10.956;2024-01-30T08:01:24;20.00;;;2.70;;
80778;SDS011;70170;47.856;10.956;2024-01-30T08:03:49;4.28;;;3.10;;
80778;SDS011;70170;47.856;10.956;2024-01-30T08:06:14;4.28;;;2.53;;
80778;SDS011;70170;47.856;10.956;2024-01-30T08:08:40;6.03;;;3.15;;
80778;SDS011;70170;47.856;10.956;2024-01-30T08:11:05;4.47;;;2.65;;
80778;SDS011;70170;47.856;10.956;2024-01-30T08:13:30;3.72;;;2.80;;
80778;SDS011;70170;47.856;10.956;2024-01-30T08:15:56;4.55;;;2.45;;
80778;SDS011;70170;47.856;10.956;2024-01-30T08:18:21;10.30;;;2.75;;
80778;SDS011;70170;47.856;10.956;2024-01-30T08:20:46;5.45;;;2.30;;
80778;SDS011;70170;47.856;10.956;2024-01-30T08:23:11;3.67;;;2.20;;
80778;SDS011;70170;47.856;10.956;2024-01-30T08:25:37;4.28;;;2.65;;
80778;SDS011;70170;47.856;10.956;2024-01-30T08:28:02;4.15;;;2.38;;
80778;SDS011;70170;47.856;10.956;2024-01-30T08:30:29;6.15;;;2.53;;
80778;SDS011;70170;47.856;10.956;2024-01-30T08:32:54;3.20;;;2.50;;
80778;SDS011;70170;47.856;10.956;2024-01-30T08:35:19;4.47;;;2.45;;
80778;SDS011;70170;47.856;10.956;2024-01-30T08:37:45;4.10;;;2.72;;
80778;SDS011;70170;47.856;10.956;2024-01-30T08:40:10;3.08;;;2.13;;
80778;SDS011;70170;47.856;10.956;2024-01-30T08:42:35;3.47;;;2.30;;
80778;SDS011;70170;47.856;10.956;2024-01-30T08:45:01;3.72;;;2.40;;
80778;SDS011;70170;47.856;10.956;2024-01-30T08:47:26;5.57;;;2.67;;
80778;SDS011;70170;47.856;10.956;2024-01-30T08:49:52;4.25;;;2.45;;
80778;SDS011;70170;47.856;10.956;2024-01-30T08:52:17;3.72;;;2.33;;
80778;SDS011;70170;47.856;10.956;2024-01-30T08:54:42;4.53;;;2.85;;
80778;SDS011;70170;47.856;10.956;2024-01-30T08:57:08;3.30;;;2.38;;
80778;SDS011;70170;47.856;10.956;2024-01-30T08:59:33;3.13;;;2.45;;
80778;SDS011;70170;47.856;10.956;2024-01-30T09:01:59;3.17;;;2.33;;
80778;SDS011;70170;47.856;10.956;2024-01-30T09:04:24;3.67;;;2.67;;
80778;SDS011;70170;47.856;10.956;2024-01-30T09:06:50;5.07;;;2.85;;
80778;SDS011;70170;47.856;10.956;2024-01-30T09:09:15;4.68;;;2.90;;
80778;SDS011;70170;47.856;10.956;2024-01-30T09:11:42;4.63;;;2.55;;
80778;SDS011;70170;47.856;10.956;2024-01-30T09:14:08;3.33;;;2.35;;
80778;SDS011;70170;47.856;10.956;2024-01-30T09:16:33;3.67;;;2.47;;
80778;SDS011;70170;47.856;10.956;2024-01-30T09:18:59;3.15;;;2.40;;
80778;SDS011;70170;47.856;10.956;2024-01-30T09:21:24;4.68;;;2.22;;
80778;SDS011;70170;47.856;10.956;2024-01-30T09:23:49;4.00;;;2.55;;
80778;SDS011;70170;47.856;10.956;2024-01-30T09:26:15;3.47;;;2.83;;
80778;SDS011;70170;47.856;10.956;2024-01-30T09:28:40;6.28;;;2.83;;
80778;SDS011;70170;47.856;10.956;2024-01-30T09:31:10;3.67;;;2.72;;
80778;SDS011;70170;47.856;10.956;2024-01-30T09:33:36;4.43;;;2.95;;
80778;SDS011;70170;47.856;10.956;2024-01-30T09:36:02;2.85;;;2.10;;
80778;SDS011;70170;47.856;10.956;2024-01-30T09:38:27;6.00;;;2.55;;
80778;SDS011;70170;47.856;10.956;2024-01-30T09:40:55;6.10;;;2.50;;
80778;SDS011;70170;47.856;10.956;2024-01-30T09:43:22;5.63;;;2.38;;
80778;SDS011;70170;47.856;10.956;2024-01-30T09:45:50;4.45;;;2.50;;
80778;SDS011;70170;47.856;10.956;2024-01-30T09:48:15;3.13;;;2.33;;
80778;SDS011;70170;47.856;10.956;2024-01-30T09:50:40;3.92;;;2.50;;
80778;SDS011;70170;47.856;10.956;2024-01-30T09:53:06;3.20;;;2.40;;
80778;SDS011;70170;47.856;10.956;2024-01-30T09:55:34;2.45;;;2.03;;
80778;SDS011;70170;47.856;10.956;2024-01-30T09:58:01;3.78;;;2.17;;
80778;SDS011;70170;47.856;10.956;2024-01-30T10:00:26;8.98;;;2.35;;
80778;SDS011;70170;47.856;10.956;2024-01-30T10:02:52;3.08;;;2.22;;
80778;SDS011;70170;47.856;10.956;2024-01-30T10:05:18;5.38;;;2.50;;
80778;SDS011;70170;47.856;10.956;2024-01-30T10:07:54;4.80;;;2.88;;
80778;SDS011;70170;47.856;10.956;2024-01-30T10:10:21;7.80;;;3.88;;
80778;SDS011;70170;47.856;10.956;2024-01-30T10:12:49;6.38;;;3.65;;
80778;SDS011;70170;47.856;10.956;2024-01-30T10:15:15;12.32;;;6.10;;
80778;SDS011;70170;47.856;10.956;2024-01-30T10:17:40;10.88;;;7.00;;
80778;SDS011;70170;47.856;10.956;2024-01-30T10:20:06;8.07;;;5.53;;
80778;SDS011;70170;47.856;10.956;2024-01-30T10:22:32;12.15;;;5.80;;
80778;SDS011;70170;47.856;10.956;2024-01-30T10:24:58;11.95;;;7.57;;
80778;SDS011;70170;47.856;10.956;2024-01-30T10:27:27;16.75;;;10.40;;
80778;SDS011;70170;47.856;10.956;2024-01-30T10:29:54;24.13;;;14.63;;
80778;SDS011;70170;47.856;10.956;2024-01-30T10:32:20;25.88;;;13.75;;
80778;SDS011;70170;47.856;10.956;2024-01-30T10:34:46;22.77;;;12.38;;
80778;SDS011;70170;47.856;10.956;2024-01-30T10:37:11;16.38;;;9.45;;
80778;SDS011;70170;47.856;10.956;2024-01-30T10:39:43;13.65;;;7.20;;
80778;SDS011;70170;47.856;10.956;2024-01-30T10:42:12;6.82;;;2.67;;
80778;SDS011;70170;47.856;10.956;2024-01-30T10:44:54;5.00;;;2.90;;
80778;SDS011;70170;47.856;10.956;2024-01-30T10:47:28;3.15;;;2.40;;
80778;SDS011;70170;47.856;10.956;2024-01-30T10:49:54;2.85;;;2.10;;
80778;SDS011;70170;47.856;10.956;2024-01-30T10:52:21;3.78;;;2.00;;
80778;SDS011;70170;47.856;10.956;2024-01-30T10:54:48;2.60;;;1.67;;
80778;SDS011;70170;47.856;10.956;2024-01-30T10:57:15;2.50;;;1.77;;
80778;SDS011;70170;47.856;10.956;2024-01-30T10:59:41;1.95;;;1.40;;
80778;SDS011;70170;47.856;10.956;2024-01-30T11:02:07;2.50;;;1.63;;
80778;SDS011;70170;47.856;10.956;2024-01-30T11:04:38;3.45;;;1.98;;
80778;SDS011;70170;47.856;10.956;2024-01-30T11:07:16;2.65;;;1.70;;
80778;SDS011;70170;47.856;10.956;2024-01-30T11:12:40;5.15;;;2.00;;
80778;SDS011;70170;47.856;10.956;2024-01-30T11:15:11;4.15;;;1.77;;
80778;SDS011;70170;47.856;10.956;2024-01-30T11:20:15;3.70;;;1.92;;
80778;SDS011;70170;47.856;10.956;2024-01-30T11:22:44;1.40;;;1.30;;
80778;SDS011;70170;47.856;10.956;2024-01-30T11:25:11;1.00;;;1.00;;
80778;SDS011;70170;47.856;10.956;2024-01-30T11:27:41;1.08;;;1.08;;
80778;SDS011;70170;47.856;10.956;2024-01-30T11:30:07;0.98;;;0.98;;
80778;SDS011;70170;47.856;10.956;2024-01-30T11:32:33;2.75;;;1.20;;
80778;SDS011;70170;47.856;10.956;2024-01-30T11:34:58;1.20;;;1.10;;
80778;SDS011;70170;47.856;10.956;2024-01-30T11:37:24;1.23;;;1.13;;
80778;SDS011;70170;47.856;10.956;2024-01-30T11:39:51;1.05;;;0.93;;
80778;SDS011;70170;47.856;10.956;2024-01-30T11:42:19;1.63;;;1.40;;
80778;SDS011;70170;47.856;10.956;2024-01-30T11:44:48;1.63;;;1.17;;
80778;SDS011;70170;47.856;10.956;2024-01-30T11:47:14;5.45;;;1.42;;
80778;SDS011;70170;47.856;10.956;2024-01-30T11:49:39;1.25;;;1.17;;
80778;SDS011;70170;47.856;10.956;2024-01-30T11:52:05;1.95;;;1.10;;
80778;SDS011;70170;47.856;10.956;2024-01-30T11:54:30;2.13;;;1.52;;
80778;SDS011;70170;47.856;10.956;2024-01-30T11:56:56;1.30;;;1.20;;
80778;SDS011;70170;47.856;10.956;2024-01-30T11:59:21;1.70;;;1.15;;
80778;SDS011;70170;47.856;10.956;2024-01-30T12:01:47;1.55;;;1.40;;
80778;SDS011;70170;47.856;10.956;2024-01-30T12:04:12;1.25;;;1.15;;
80778;SDS011;70170;47.856;10.956;2024-01-30T12:06:38;1.85;;;1.20;;
80778;SDS011;70170;47.856;10.956;2024-01-30T12:09:04;1.73;;;1.25;;
80778;SDS011;70170;47.856;10.956;2024-01-30T12:11:29;1.50;;;1.40;;
80778;SDS011;70170;47.856;10.956;2024-01-30T12:13:55;1.70;;;1.15;;
80778;SDS011;70170;47.856;10.956;2024-01-30T12:16:21;2.83;;;1.77;;
80778;SDS011;70170;47.856;10.956;2024-01-30T12:18:47;1.75;;;1.65;;
80778;SDS011;70170;47.856;10.956;2024-01-30T12:21:15;1.20;;;1.05;;
80778;SDS011;70170;47.856;10.956;2024-01-30T12:23:41;1.40;;;1.25;;
80778;SDS011;70170;47.856;10.956;2024-01-30T12:26:07;2.70;;;1.25;;
80778;SDS011;70170;47.856;10.956;2024-01-30T12:28:35;1.58;;;1.30;;
80778;SDS011;70170;47.856;10.956;2024-01-30T12:31:01;2.03;;;1.63;;
80778;SDS011;70170;47.856;10.956;2024-01-30T12:33:29;1.50;;;1.40;;
80778;SDS011;70170;47.856;10.956;2024-01-30T12:36:01;1.23;;;1.13;;
80778;SDS011;70170;47.856;10.956;2024-01-30T12:38:26;2.40;;;1.58;;
80778;SDS011;70170;47.856;10.956;2024-01-30T12:40:55;3.47;;;1.40;;
80778;SDS011;70170;47.856;10.956;2024-01-30T12:43:21;3.47;;;2.10;;
80778;SDS011;70170;47.856;10.956;2024-01-30T12:45:47;1.88;;;1.33;;
80778;SDS011;70170;47.856;10.956;2024-01-30T12:48:13;4.05;;;1.25;;
80778;SDS011;70170;47.856;10.956;2024-01-30T12:50:38;1.48;;;1.38;;
80778;SDS011;70170;47.856;10.956;2024-01-30T12:53:03;3.33;;;1.42;;
80778;SDS011;70170;47.856;10.956;2024-01-30T12:55:29;1.48;;;1.33;;
80778;SDS011;70170;47.856;10.956;2024-01-30T12:57:55;1.58;;;1.33;;
80778;SDS011;70170;47.856;10.956;2024-01-30T13:00:20;1.52;;;1.40;;
80778;SDS011;70170;47.856;10.956;2024-01-30T13:02:47;2.95;;;1.40;;
80778;SDS011;70170;47.856;10.956;2024-01-30T13:05:12;2.08;;;1.38;;
80778;SDS011;70170;47.856;10.956;2024-01-30T13:07:38;3.13;;;1.23;;
80778;SDS011;70170;47.856;10.956;2024-01-30T13:10:03;4.47;;;1.40;;
80778;SDS011;70170;47.856;10.956;2024-01-30T13:12:29;1.63;;;1.30;;
80778;SDS011;70170;47.856;10.956;2024-01-30T13:14:55;1.85;;;1.30;;
80778;SDS011;70170;47.856;10.956;2024-01-30T13:17:20;1.80;;;1.70;;
80778;SDS011;70170;47.856;10.956;2024-01-30T13:19:46;3.15;;;2.15;;
80778;SDS011;70170;47.856;10.956;2024-01-30T13:22:11;3.70;;;2.00;;
80778;SDS011;70170;47.856;10.956;2024-01-30T13:24:36;2.80;;;1.98;;
80778;SDS011;70170;47.856;10.956;2024-01-30T13:27:02;3.42;;;2.13;;
80778;SDS011;70170;47.856;10.956;2024-01-30T13:29:30;7.40;;;2.10;;
80778;SDS011;70170;47.856;10.956;2024-01-30T13:31:56;2.15;;;1.95;;
80778;SDS011;70170;47.856;10.956;2024-01-30T13:34:21;9.05;;;2.05;;
80778;SDS011;70170;47.856;10.956;2024-01-30T13:36:46;2.80;;;2.22;;
80778;SDS011;70170;47.856;10.956;2024-01-30T13:39:13;3.15;;;2.45;;
80778;SDS011;70170;47.856;10.956;2024-01-30T13:41:39;4.57;;;2.30;;
80778;SDS011;70170;47.856;10.956;2024-01-30T13:44:06;3.38;;;2.63;;
80778;SDS011;70170;47.856;10.956;2024-01-30T13:46:31;4.53;;;2.13;;
80778;SDS011;70170;47.856;10.956;2024-01-30T13:48:57;3.80;;;2.40;;
80778;SDS011;70170;47.856;10.956;2024-01-30T13:51:22;1.98;;;1.75;;
80778;SDS011;70170;47.856;10.956;2024-01-30T13:53:47;2.63;;;2.00;;
80778;SDS011;70170;47.856;10.956;2024-01-30T13:56:15;2.90;;;1.40;;
80778;SDS011;70170;47.856;10.956;2024-01-30T13:58:40;2.63;;;1.83;;
80778;SDS011;70170;47.856;10.956;2024-01-30T14:01:05;2.55;;;1.65;;
80778;SDS011;70170;47.856;10.956;2024-01-30T14:03:31;2.97;;;1.98;;
80778;SDS011;70170;47.856;10.956;2024-01-30T14:05:57;3.40;;;1.75;;
80778;SDS011;70170;47.856;10.956;2024-01-30T14:08:22;2.45;;;1.60;;
80778;SDS011;70170;47.856;10.956;2024-01-30T14:10:51;2.00;;;1.65;;
80778;SDS011;70170;47.856;10.956;2024-01-30T14:13:17;2.03;;;1.80;;
80778;SDS011;70170;47.856;10.956;2024-01-30T14:15:42;3.53;;;2.15;;
80778;SDS011;70170;47.856;10.956;2024-01-30T14:18:07;2.35;;;1.60;;
80778;SDS011;70170;47.856;10.956;2024-01-30T14:20:33;2.05;;;1.85;;
80778;SDS011;70170;47.856;10.956;2024-01-30T14:22:59;2.47;;;1.67;;
80778;SDS011;70170;47.856;10.956;2024-01-30T14:25:24;3.70;;;1.83;;
80778;SDS011;70170;47.856;10.956;2024-01-30T14:27:50;2.15;;;1.70;;
80778;SDS011;70170;47.856;10.956;2024-01-30T14:30:15;2.25;;;1.60;;